Time;durP1;ratioP1;P1;durP2;ratioP2;P2;SDS_P1;SDS_P2;PMS_P1;PMS_P2;Temp;Humidity;BMP_temperature;BMP_pressure;BME280_temperature;BME280_humidity;BME280_pressure;Samples;Min_cycle;Max_cycle;Signal;HPM_P1;HPM_P2
2023/05/25 00:00:19;;;;;;;18.27;7.03;;;;;;;10.54;100.00;102487.03;5281303;28;20032;-74
2023/05/25 00:02:53;;;;;;;17.58;6.35;;;;;;;10.51;100.00;102489.06;5281707;28;20497;-74
2023/05/25 00:05:26;;;;;;;15.40;6.93;;;;;;;10.43;100.00;102489.56;5281373;28;20158;-74
2023/05/25 00:07:57;;;;;;;14.15;6.53;;;;;;;10.45;100.00;102494.78;5283033;28;20446;-73
2023/05/25 00:10:28;;;;;;;15.77;6.70;;;;;;;10.47;100.00;102492.91;5286875;28;20158;-74
2023/05/25 00:13:00;;;;;;;14.95;6.35;;;;;;;10.47;100.00;102492.91;5285332;28;20028;-75
2023/05/25 00:15:31;;;;;;;14.07;6.60;;;;;;;10.43;100.00;102494.91;5286984;28;20097;-73
2023/05/25 00:18:02;;;;;;;14.63;7.15;;;;;;;10.39;100.00;102490.72;5283431;28;20074;-74
2023/05/25 00:20:34;;;;;;;12.75;6.40;;;;;;;10.41;100.00;102491.47;5281252;28;20036;-73
2023/05/25 00:23:05;;;;;;;15.55;6.43;;;;;;;10.36;100.00;102489.13;5280756;28;20393;-73
2023/05/25 00:25:36;;;;;;;12.13;5.93;;;;;;;10.35;100.00;102489.22;5285603;28;20541;-74
2023/05/25 00:28:10;;;;;;;15.13;6.50;;;;;;;10.32;100.00;102497.41;5292261;28;20389;-75
2023/05/25 00:30:41;;;;;;;17.13;6.47;;;;;;;10.25;100.00;102498.75;5283587;28;20016;-74
2023/05/25 00:33:13;;;;;;;12.38;6.20;;;;;;;10.31;100.00;102491.22;5280419;28;20035;-74
2023/05/25 00:35:45;;;;;;;14.32;6.85;;;;;;;10.26;100.00;102489.78;5281032;28;20482;-74
2023/05/25 00:38:17;;;;;;;14.63;6.82;;;;;;;10.20;100.00;102496.34;5280407;28;20035;-74
2023/05/25 00:40:54;;;;;;;12.85;6.53;;;;;;;10.27;100.00;102503.00;5281517;28;20107;-74
2023/05/25 00:43:25;;;;;;;15.52;6.97;;;;;;;10.14;100.00;102502.09;5285225;28;20401;-74
2023/05/25 00:45:57;;;;;;;13.45;6.72;;;;;;;10.18;100.00;102503.59;5289927;28;20031;-74
2023/05/25 00:48:28;;;;;;;14.63;6.72;;;;;;;10.13;100.00;102500.38;5281703;28;20111;-74
2023/05/25 00:51:00;;;;;;;12.88;5.75;;;;;;;10.12;100.00;102498.69;5279781;28;20552;-75
2023/05/25 00:53:32;;;;;;;15.23;7.20;;;;;;;10.13;100.00;102495.94;5282472;28;20089;-74
2023/05/25 00:56:22;;;;;;;12.98;5.65;;;;;;;10.17;100.00;102500.09;5287369;28;20028;-74
2023/05/25 00:58:55;;;;;;;15.93;6.35;;;;;;;10.08;100.00;102497.16;5282519;28;20385;-74
2023/05/25 01:01:32;;;;;;;11.18;5.25;;;;;;;10.03;100.00;102503.66;5279349;28;20521;-74
2023/05/25 01:04:06;;;;;;;;;;;;;;;10.28;100.00;102503.88;5281670;28;20013;-74
2023/05/25 01:06:39;;;;;;;13.93;5.45;;;;;;;10.10;100.00;102508.56;5279590;28;19916;-74
2023/05/25 01:09:14;;;;;;;11.07;5.35;;;;;;;10.05;100.00;102506.22;5286863;28;20107;-74
2023/05/25 01:11:50;;;;;;;15.35;6.00;;;;;;;10.01;100.00;102500.22;5278597;28;20065;-74
2023/05/25 01:14:21;;;;;;;17.75;6.70;;;;;;;9.98;100.00;102507.56;5284251;28;20058;-74
2023/05/25 01:16:55;;;;;;;11.55;5.78;;;;;;;9.94;100.00;102503.38;5279569;28;20048;-74
2023/05/25 01:19:27;;;;;;;12.32;5.25;;;;;;;9.86;100.00;102498.53;5279114;28;20546;-74
2023/05/25 01:22:06;;;;;;;13.75;5.65;;;;;;;9.87;100.00;102502.03;5279206;28;20024;-74
2023/05/25 01:24:50;;;;;;;10.98;5.50;;;;;;;9.92;100.00;102506.16;5295155;28;20032;-74
2023/05/25 01:27:38;;;;;;;12.80;5.90;;;;;;;9.90;100.00;102510.69;5280493;28;20123;-75
2023/05/25 01:30:12;;;;;;;12.27;5.47;;;;;;;9.85;100.00;102510.13;5279769;28;20040;-75
2023/05/25 01:32:44;;;;;;;15.75;6.18;;;;;;;9.84;100.00;102516.44;5279709;28;20047;-75
2023/05/25 01:35:18;;;;;;;13.52;5.78;;;;;;;9.74;100.00;102516.16;5285943;28;20516;-75
2023/05/25 01:37:50;;;;;;;12.73;5.82;;;;;;;9.75;100.00;102522.34;5279738;28;20424;-74
2023/05/25 01:40:22;;;;;;;13.57;6.35;;;;;;;9.69;100.00;102530.72;5278014;28;20032;-74
2023/05/25 01:42:53;;;;;;;17.50;5.63;;;;;;;9.73;100.00;102525.13;5283336;28;20016;-75
2023/05/25 01:45:25;;;;;;;14.60;5.75;;;;;;;9.73;100.00;102532.22;5280034;28;20552;-75
2023/05/25 01:48:22;;;;;;;14.85;6.22;;;;;;;9.78;100.00;102522.13;5284237;28;20032;-75
2023/05/25 01:51:00;;;;;;;10.35;5.90;;;;;;;9.71;100.00;102519.03;5273291;28;20032;-75
2023/05/25 01:53:39;;;;;;;11.60;6.00;;;;;;;9.71;100.00;102532.34;5279236;28;20062;-74
2023/05/25 01:56:13;;;;;;;16.10;6.07;;;;;;;9.68;100.00;102534.31;5282366;28;20508;-74
2023/05/25 01:58:46;;;;;;;11.95;5.32;;;;;;;9.59;100.00;102530.41;5281553;28;20079;-75
2023/05/25 02:01:19;;;;;;;11.27;5.68;;;;;;;9.61;100.00;102533.88;5283646;28;20032;-75
2023/05/25 02:03:51;;;;;;;13.10;5.85;;;;;;;9.57;100.00;102535.88;5278308;28;20035;-75
2023/05/25 02:06:22;;;;;;;9.82;6.18;;;;;;;9.48;100.00;102533.75;5280944;28;20330;-75
2023/05/25 02:08:53;;;;;;;16.40;5.90;;;;;;;9.53;100.00;102528.16;5286373;28;20428;-75
2023/05/25 02:11:25;;;;;;;12.68;6.18;;;;;;;9.52;100.00;102531.75;5286316;28;20654;-75
2023/05/25 02:13:56;;;;;;;9.85;6.28;;;;;;;9.51;100.00;102536.22;5283399;28;20099;-75
2023/05/25 02:16:28;;;;;;;19.35;10.88;;;;;;;9.46;100.00;102531.16;5278384;28;20044;-75
2023/05/25 02:18:59;;;;;;;15.90;6.47;;;;;;;9.44;100.00;102526.91;5279525;28;20397;-75
2023/05/25 02:21:31;;;;;;;14.27;6.45;;;;;;;9.42;100.00;102532.31;5278484;28;20028;-75
2023/05/25 02:24:03;;;;;;;13.25;6.70;;;;;;;9.39;100.00;102524.50;5292576;28;20475;-75
2023/05/25 02:26:35;;;;;;;14.48;6.63;;;;;;;9.36;100.00;102532.72;5283105;28;20025;-75
2023/05/25 02:29:07;;;;;;;13.98;7.40;;;;;;;9.30;100.00;102527.75;5278356;28;20024;-75
2023/05/25 02:31:38;;;;;;;15.55;7.63;;;;;;;9.22;100.00;102530.88;5278641;28;20051;-72
2023/05/25 02:34:10;;;;;;;12.27;6.65;;;;;;;9.25;100.00;102522.69;5277493;28;20401;-75
2023/05/25 02:36:43;;;;;;;13.10;7.90;;;;;;;9.18;100.00;102524.00;5281692;28;20028;-72
2023/05/25 02:39:15;;;;;;;15.93;7.88;;;;;;;9.21;100.00;102531.81;5280168;28;20028;-73
2023/05/25 02:41:46;;;;;;;12.73;7.00;;;;;;;9.17;100.00;102527.63;5278398;28;20028;-72
2023/05/25 02:44:18;;;;;;;11.80;7.47;;;;;;;9.11;100.00;102525.31;5289869;28;20401;-75
2023/05/25 02:46:49;;;;;;;13.85;8.00;;;;;;;9.06;100.00;102528.28;5288743;28;20023;-75
2023/05/25 02:49:21;;;;;;;12.13;6.43;;;;;;;9.00;100.00;102528.63;5279644;28;20098;-73
2023/05/25 02:51:52;;;;;;;15.60;6.55;;;;;;;8.99;100.00;102532.22;5278107;28;20028;-73
2023/05/25 02:54:23;;;;;;;13.23;6.25;;;;;;;9.04;100.00;102537.28;5277344;28;20028;-73
2023/05/25 02:56:54;;;;;;;12.50;6.18;;;;;;;8.96;100.00;102531.56;5285475;28;20862;-74
2023/05/25 02:59:26;;;;;;;12.02;6.20;;;;;;;8.92;100.00;102528.22;5280900;28;20069;-73
2023/05/25 03:01:57;;;;;;;12.60;6.40;;;;;;;8.96;100.00;102534.22;5285666;28;20401;-74
2023/05/25 03:04:32;;;;;;;10.48;6.20;;;;;;;8.86;100.00;102528.59;5284945;28;20020;-73
2023/05/25 03:07:04;;;;;;;11.68;6.95;;;;;;;8.87;100.00;102524.97;5281364;28;20540;-73
2023/05/25 03:09:35;;;;;;;11.32;6.50;;;;;;;8.92;100.00;102535.34;5278048;28;20032;-73
2023/05/25 03:12:06;;;;;;;13.40;7.00;;;;;;;8.84;100.00;102530.50;5277589;28;20054;-74
2023/05/25 03:14:37;;;;;;;12.90;6.95;;;;;;;8.80;100.00;102536.91;5290963;28;20031;-73
2023/05/25 03:17:09;;;;;;;13.23;6.93;;;;;;;8.82;100.00;102537.72;5286888;28;20425;-73
2023/05/25 03:19:41;;;;;;;12.40;6.95;;;;;;;8.80;100.00;102547.56;5288002;28;20448;-74
2023/05/25 03:22:12;;;;;;;15.10;7.00;;;;;;;8.82;100.00;102540.38;5283076;28;20016;-74
2023/05/25 03:24:45;;;;;;;14.80;7.00;;;;;;;8.77;100.00;102540.63;5288039;28;20440;-74
2023/05/25 03:27:16;;;;;;;14.77;7.05;;;;;;;8.72;100.00;102549.84;5281204;28;20016;-74
2023/05/25 03:29:49;;;;;;;11.68;7.53;;;;;;;8.72;100.00;102550.69;5282300;28;20021;-74
2023/05/25 03:32:21;;;;;;;13.45;7.63;;;;;;;8.68;100.00;102549.16;5281396;28;20034;-73
2023/05/25 03:34:53;;;;;;;17.73;8.10;;;;;;;8.64;100.00;102563.56;5281905;28;20029;-73
2023/05/25 03:37:24;;;;;;;13.52;8.13;;;;;;;8.67;100.00;102569.56;5293945;28;20032;-73
2023/05/25 03:39:55;;;;;;;15.02;8.73;;;;;;;8.65;100.00;102554.66;5288441;28;20107;-73
2023/05/25 03:42:27;;;;;;;15.75;8.88;;;;;;;8.60;100.00;102562.03;5284482;28;20068;-73
2023/05/25 03:44:58;;;;;;;14.57;8.63;;;;;;;8.63;100.00;102567.19;5290668;28;20123;-69
2023/05/25 03:47:30;;;;;;;17.35;8.98;;;;;;;8.69;100.00;102572.13;5289844;28;20016;-70
2023/05/25 03:50:05;;;;;;;13.45;8.07;;;;;;;8.73;100.00;102578.13;5289150;28;20065;-70
2023/05/25 03:52:37;;;;;;;13.03;8.80;;;;;;;8.67;100.00;102574.03;5283490;28;20631;-70
2023/05/25 03:55:08;;;;;;;16.40;10.18;;;;;;;8.73;100.00;102583.44;5289767;28;20029;-70
2023/05/25 03:57:40;;;;;;;17.95;9.50;;;;;;;8.71;100.00;102578.22;5290540;28;20027;-70
2023/05/25 04:00:12;;;;;;;15.43;8.95;;;;;;;8.65;100.00;102579.44;5280905;28;20024;-70
2023/05/25 04:02:44;;;;;;;15.88;10.35;;;;;;;8.73;100.00;102581.69;5287948;28;20039;-70
2023/05/25 04:05:15;;;;;;;15.88;9.55;;;;;;;8.72;100.00;102587.06;5280828;28;20017;-70
2023/05/25 04:07:47;;;;;;;23.02;10.68;;;;;;;8.72;100.00;102585.25;5281107;28;20059;-70
2023/05/25 04:10:18;;;;;;;17.20;11.20;;;;;;;8.73;100.00;102594.09;5280469;28;20106;-70
2023/05/25 04:12:50;;;;;;;18.00;11.55;;;;;;;8.71;100.00;102588.84;5281473;28;20028;-69
2023/05/25 04:15:22;;;;;;;17.98;11.23;;;;;;;8.74;100.00;102596.66;5286310;28;20029;-69
2023/05/25 04:17:53;;;;;;;18.15;11.35;;;;;;;8.74;100.00;102585.19;5295580;28;20028;-70
2023/05/25 04:20:25;;;;;;;18.95;11.43;;;;;;;8.72;100.00;102590.59;5286169;28;20059;-70
2023/05/25 04:22:56;;;;;;;18.45;11.18;;;;;;;8.79;100.00;102597.28;5281941;28;20009;-70
2023/05/25 04:25:27;;;;;;;19.77;13.15;;;;;;;8.83;100.00;102592.63;5278895;28;20016;-70
2023/05/25 04:27:59;;;;;;;22.17;11.30;;;;;;;8.87;100.00;102589.72;5283705;28;20028;-71
2023/05/25 04:30:30;;;;;;;21.63;11.13;;;;;;;8.87;100.00;102584.38;5280248;28;20040;-70
2023/05/25 04:33:02;;;;;;;17.13;11.10;;;;;;;8.88;100.00;102587.91;5280915;28;20078;-70
2023/05/25 04:35:35;;;;;;;14.60;10.20;;;;;;;8.92;100.00;102597.41;5282687;28;20074;-70
2023/05/25 04:38:06;;;;;;;16.20;10.70;;;;;;;8.95;100.00;102601.72;5280368;28;20082;-70
2023/05/25 04:40:40;;;;;;;17.40;10.57;;;;;;;8.99;100.00;102596.09;5284196;28;20028;-70
2023/05/25 04:43:12;;;;;;;21.63;10.30;;;;;;;9.01;100.00;102596.03;5286224;28;20103;-70
2023/05/25 04:45:44;;;;;;;18.63;10.18;;;;;;;8.98;100.00;102594.41;5285197;28;20016;-70
2023/05/25 04:48:16;;;;;;;15.43;9.70;;;;;;;9.07;100.00;102601.84;5283144;28;20036;-70
2023/05/25 04:50:47;;;;;;;15.95;9.35;;;;;;;9.11;100.00;102597.19;5279675;28;20036;-70
2023/05/25 04:53:19;;;;;;;28.52;11.07;;;;;;;9.14;100.00;102605.00;5287925;28;20993;-70
2023/05/25 04:55:50;;;;;;;17.80;9.45;;;;;;;9.22;100.00;102604.56;5283528;28;20056;-70
2023/05/25 04:58:21;;;;;;;15.98;9.20;;;;;;;9.21;100.00;102598.38;5285691;28;20497;-70
2023/05/25 05:00:53;;;;;;;21.38;10.60;;;;;;;9.31;100.00;102605.81;5287179;28;20017;-70
2023/05/25 05:03:24;;;;;;;20.25;10.23;;;;;;;9.29;100.00;102611.22;5280425;28;20025;-70
2023/05/25 05:05:55;;;;;;;14.23;8.45;;;;;;;9.36;100.00;102609.06;5279735;28;20024;-70
2023/05/25 05:08:27;;;;;;;16.83;9.10;;;;;;;9.38;100.00;102609.81;5281822;28;20559;-70
2023/05/25 05:10:58;;;;;;;14.57;8.48;;;;;;;9.39;100.00;102619.53;5279790;28;20162;-70
2023/05/25 05:13:29;;;;;;;16.45;9.80;;;;;;;9.45;100.00;102620.03;5280298;28;20020;-70
2023/05/25 05:16:01;;;;;;;17.20;9.43;;;;;;;9.50;100.00;102613.56;5283914;28;20035;-70
2023/05/25 05:18:32;;;;;;;13.45;8.05;;;;;;;9.58;100.00;102611.31;5281939;28;20600;-70
2023/05/25 05:21:03;;;;;;;14.70;8.23;;;;;;;9.61;100.00;102617.31;5282802;28;20394;-70
2023/05/25 05:23:35;;;;;;;19.02;8.48;;;;;;;9.69;100.00;102618.66;5283900;28;20020;-70
2023/05/25 05:26:09;;;;;;;17.73;8.43;;;;;;;9.75;100.00;102623.63;5283811;28;20020;-70
2023/05/25 05:28:41;;;;;;;17.13;8.93;;;;;;;9.79;100.00;102627.81;5280280;28;20043;-70
2023/05/25 05:31:12;;;;;;;16.67;8.40;;;;;;;9.83;100.00;102624.88;5279422;28;20107;-70
2023/05/25 05:33:43;;;;;;;16.70;8.23;;;;;;;9.88;100.00;102627.22;5279688;28;20490;-70
2023/05/25 05:36:15;;;;;;;17.42;7.70;;;;;;;9.92;100.00;102631.44;5278652;28;20033;-70
2023/05/25 05:38:46;;;;;;;17.77;8.82;;;;;;;10.00;100.00;102638.94;5279732;28;20032;-70
2023/05/25 05:41:17;;;;;;;13.80;7.78;;;;;;;10.02;100.00;102640.56;5282473;28;20067;-69
2023/05/25 05:43:48;;;;;;;15.80;8.32;;;;;;;10.13;100.00;102641.69;5285245;28;20031;-70
2023/05/25 05:46:20;;;;;;;13.93;7.47;;;;;;;10.22;100.00;102646.47;5285070;28;20062;-70
2023/05/25 05:48:51;;;;;;;21.70;8.80;;;;;;;10.27;100.00;102649.69;5280877;28;20074;-70
2023/05/25 05:51:22;;;;;;;17.45;7.28;;;;;;;10.31;100.00;102650.34;5278452;28;20024;-70
2023/05/25 05:53:54;;;;;;;20.10;7.32;;;;;;;10.36;100.00;102654.50;5283598;28;20399;-70
2023/05/25 05:56:25;;;;;;;15.02;7.53;;;;;;;10.45;100.00;102666.41;5279440;28;20444;-70
2023/05/25 05:58:57;;;;;;;14.63;7.07;;;;;;;10.52;100.00;102667.72;5283714;28;20035;-70
2023/05/25 06:01:28;;;;;;;14.90;7.22;;;;;;;10.64;100.00;102668.75;5283371;28;20023;-69
2023/05/25 06:03:59;;;;;;;16.23;6.43;;;;;;;10.73;100.00;102672.66;5279376;28;20037;-70
2023/05/25 06:06:33;;;;;;;11.57;7.00;;;;;;;10.81;100.00;102675.66;5279301;28;20111;-69
2023/05/25 06:09:05;;;;;;;13.45;5.13;;;;;;;10.93;100.00;102679.34;5278972;28;20363;-70
2023/05/25 06:11:38;;;;;;;14.98;6.85;;;;;;;10.96;100.00;102682.69;5276518;28;20032;-70
2023/05/25 06:14:10;;;;;;;13.25;6.18;;;;;;;11.17;100.00;102666.22;5285960;28;20465;-70
2023/05/25 06:16:42;;;;;;;11.77;6.18;;;;;;;11.32;100.00;102675.84;5283742;28;20112;-69
2023/05/25 06:19:13;;;;;;;12.00;5.80;;;;;;;11.51;100.00;102667.44;5279099;28;20028;-70
2023/05/25 06:21:45;;;;;;;11.45;5.93;;;;;;;11.70;100.00;102677.75;5277994;28;20389;-70
2023/05/25 06:24:16;;;;;;;14.90;5.60;;;;;;;11.96;100.00;102680.50;5279788;28;20393;-70
2023/05/25 06:26:47;;;;;;;14.57;6.60;;;;;;;12.15;100.00;102672.03;5277851;28;20113;-70
2023/05/25 06:29:18;;;;;;;12.18;6.03;;;;;;;12.44;100.00;102677.97;5282049;28;20028;-70
2023/05/25 06:31:50;;;;;;;12.95;6.53;;;;;;;12.66;100.00;102679.13;5278407;28;20623;-70
2023/05/25 06:34:21;;;;;;;13.73;6.07;;;;;;;12.78;100.00;102688.06;5278524;28;20028;-71
2023/05/25 06:36:52;;;;;;;12.60;5.88;;;;;;;12.79;100.00;102684.44;5278678;28;20024;-71
2023/05/25 06:39:23;;;;;;;15.73;6.20;;;;;;;12.97;100.00;102692.94;5281171;28;20035;-71
2023/05/25 06:41:55;;;;;;;9.68;5.53;;;;;;;13.02;100.00;102688.94;5286683;28;20024;-71
2023/05/25 06:44:26;;;;;;;10.52;5.25;;;;;;;13.37;100.00;102688.16;5279171;28;20020;-70
2023/05/25 06:46:57;;;;;;;10.02;4.63;;;;;;;13.66;100.00;102686.94;5281397;28;20017;-71
2023/05/25 06:49:29;;;;;;;15.27;5.40;;;;;;;13.84;100.00;102688.19;5282485;28;20056;-70
2023/05/25 06:52:00;;;;;;;15.43;5.03;;;;;;;14.07;100.00;102688.22;5284406;28;20211;-70
2023/05/25 06:54:32;;;;;;;7.50;5.05;;;;;;;14.17;100.00;102694.56;5277925;28;20028;-70
2023/05/25 06:57:03;;;;;;;10.98;5.05;;;;;;;14.17;100.00;102694.56;5279262;28;20028;-69
2023/05/25 06:59:34;;;;;;;11.45;5.22;;;;;;;14.17;100.00;102694.56;5282784;28;20032;-71
2023/05/25 07:02:06;;;;;;;8.50;4.63;;;;;;;14.09;100.00;102697.00;5278539;28;20041;-70
2023/05/25 07:04:37;;;;;;;7.55;4.20;;;;;;;14.18;100.00;102694.47;5278352;28;20034;-70
2023/05/25 07:07:08;;;;;;;10.93;4.50;;;;;;;14.26;100.00;102703.72;5278922;28;20024;-70
2023/05/25 07:09:40;;;;;;;11.07;4.43;;;;;;;14.33;100.00;102705.78;5281069;28;20020;-70
2023/05/25 07:12:11;;;;;;;11.00;4.57;;;;;;;14.77;100.00;102708.59;5281804;28;20478;-70
2023/05/25 07:14:46;;;;;;;8.55;5.00;;;;;;;14.86;100.00;102712.38;5277934;28;20052;-70
2023/05/25 07:17:18;;;;;;;11.63;5.00;;;;;;;15.07;100.00;102707.91;5277900;28;20100;-70
2023/05/25 07:19:49;;;;;;;9.55;5.07;;;;;;;15.28;100.00;102712.50;5277940;28;20151;-70
2023/05/25 07:22:22;;;;;;;9.63;5.03;;;;;;;15.30;100.00;102705.16;5281117;28;20028;-70
2023/05/25 07:24:53;;;;;;;8.50;4.90;;;;;;;15.40;100.00;102713.31;5277416;28;20100;-71
2023/05/25 07:27:25;;;;;;;9.30;5.18;;;;;;;15.65;100.00;102715.63;5281376;28;20454;-71
2023/05/25 07:29:56;;;;;;;10.95;5.05;;;;;;;15.74;100.00;102719.38;5277626;28;20021;-71
2023/05/25 07:32:27;;;;;;;13.55;5.05;;;;;;;16.24;100.00;102721.41;5278384;28;20028;-71
2023/05/25 07:34:58;;;;;;;11.07;5.15;;;;;;;16.23;100.00;102720.56;5276160;28;20474;-71
2023/05/25 07:37:30;;;;;;;9.57;5.10;;;;;;;16.36;100.00;102723.03;5277539;28;20428;-70
2023/05/25 07:40:01;;;;;;;6.65;4.63;;;;;;;16.17;100.00;102721.09;5285365;28;20031;-70
2023/05/25 07:42:33;;;;;;;10.80;5.28;;;;;;;16.05;100.00;102727.53;5281283;28;20027;-70
2023/05/25 07:45:05;;;;;;;13.13;5.38;;;;;;;15.99;100.00;102728.94;5283408;28;20026;-70
2023/05/25 07:47:36;;;;;;;10.95;5.10;;;;;;;16.11;100.00;102726.16;5281789;28;20055;-70
2023/05/25 07:50:08;;;;;;;13.75;4.97;;;;;;;16.39;100.00;102725.47;5278199;28;20069;-70
2023/05/25 07:52:40;;;;;;;11.65;5.00;;;;;;;16.74;100.00;102721.47;5283870;28;20024;-71
2023/05/25 07:55:11;;;;;;;9.32;4.50;;;;;;;17.11;100.00;102715.50;5278415;28;20036;-71
2023/05/25 07:57:42;;;;;;;10.15;4.50;;;;;;;17.34;100.00;102724.16;5290117;28;20499;-71
2023/05/25 08:00:14;;;;;;;11.25;4.85;;;;;;;17.74;100.00;102720.44;5284431;28;20023;-71
2023/05/25 08:02:45;;;;;;;9.95;4.75;;;;;;;18.16;100.00;102721.94;5280256;28;20090;-71
2023/05/25 08:05:17;;;;;;;11.10;4.85;;;;;;;18.17;100.00;102720.09;5281319;28;20021;-71
2023/05/25 08:07:48;;;;;;;10.55;4.70;;;;;;;18.36;100.00;102728.13;5283024;28;20039;-71
2023/05/25 08:10:19;;;;;;;11.77;4.72;;;;;;;18.71;100.00;102716.59;5280965;28;20062;-71
2023/05/25 08:12:50;;;;;;;10.77;5.03;;;;;;;18.40;100.00;102723.28;5289028;28;20271;-71
2023/05/25 08:15:22;;;;;;;10.02;5.00;;;;;;;18.68;100.00;102722.28;5281117;28;20503;-71
2023/05/25 08:17:55;;;;;;;10.18;4.75;;;;;;;18.35;100.00;102729.13;5281055;28;20358;-71
2023/05/25 08:20:26;;;;;;;12.25;4.78;;;;;;;18.64;100.00;102731.69;5280506;28;20077;-72
2023/05/25 08:22:58;;;;;;;10.57;4.50;;;;;;;18.87;100.00;102732.16;5284689;28;20046;-72
2023/05/25 08:25:29;;;;;;;10.88;4.68;;;;;;;19.13;100.00;102727.91;5282542;28;20027;-71
2023/05/25 08:28:00;;;;;;;9.82;4.82;;;;;;;19.14;100.00;102729.59;5281310;28;20110;-71
2023/05/25 08:30:32;;;;;;;8.40;4.45;;;;;;;19.23;100.00;102729.53;5280082;28;20032;-71
2023/05/25 08:33:04;;;;;;;13.48;4.75;;;;;;;18.98;100.00;102720.28;5280857;28;20105;-71
2023/05/25 08:35:39;;;;;;;9.25;4.03;;;;;;;19.51;100.00;102732.13;5285946;28;20045;-72
2023/05/25 08:38:10;;;;;;;13.00;5.27;;;;;;;19.74;100.00;102734.38;5286280;28;20115;-72
2023/05/25 08:40:43;;;;;;;12.10;4.65;;;;;;;20.00;100.00;102743.41;5293321;28;20834;-71
2023/05/25 08:43:15;;;;;;;14.10;4.38;;;;;;;20.39;100.00;102747.53;5283418;28;20028;-72
2023/05/25 08:45:46;;;;;;;14.73;4.38;;;;;;;20.96;100.00;102739.63;5293039;28;20035;-71
2023/05/25 08:48:21;;;;;;;12.82;4.10;;;;;;;20.88;100.00;102749.59;5285268;28;20025;-71
2023/05/25 08:50:53;;;;;;;9.18;3.78;;;;;;;20.88;100.00;102736.91;5279871;28;20036;-71
2023/05/25 08:53:25;;;;;;;8.80;3.70;;;;;;;20.85;100.00;102739.09;5284972;28;20477;-71
2023/05/25 08:55:58;;;;;;;10.75;3.30;;;;;;;20.18;100.00;102747.91;5283843;28;20016;-71
2023/05/25 08:58:39;;;;;;;11.75;3.72;;;;;;;19.90;100.00;102747.19;5289068;28;20856;-71
2023/05/25 09:01:14;;;;;;;7.53;3.63;;;;;;;19.71;100.00;102748.22;5280012;28;20028;-71
2023/05/25 09:03:46;;;;;;;7.72;3.63;;;;;;;19.28;100.00;102742.56;5280886;28;20033;-71
2023/05/25 09:06:18;;;;;;;11.07;4.10;;;;;;;19.00;100.00;102747.19;5280151;28;20013;-71
2023/05/25 09:08:49;;;;;;;11.02;4.20;;;;;;;19.33;100.00;102747.53;5279152;28;20016;-71
2023/05/25 09:11:21;;;;;;;10.20;3.63;;;;;;;19.02;100.00;102739.75;5279935;28;20071;-72
2023/05/25 09:13:52;;;;;;;12.05;3.92;;;;;;;18.93;100.00;102748.78;5293342;28;20148;-71
2023/05/25 09:16:24;;;;;;;13.30;4.65;;;;;;;18.58;100.00;102748.50;5279905;28;20027;-71
2023/05/25 09:18:56;;;;;;;10.80;4.05;;;;;;;18.41;100.00;102749.31;5279821;28;20032;-71
2023/05/25 09:21:28;;;;;;;12.10;4.65;;;;;;;18.26;100.00;102752.47;5282714;28;20432;-71
2023/05/25 09:24:00;;;;;;;8.75;4.05;;;;;;;18.11;100.00;102749.41;5280088;28;20028;-72
2023/05/25 09:26:33;;;;;;;11.90;4.05;;;;;;;18.06;100.00;102753.53;5279312;28;20031;-71
2023/05/25 09:29:04;;;;;;;13.18;4.07;;;;;;;17.80;100.00;102748.72;5284742;28;20024;-72
2023/05/25 09:31:36;;;;;;;6.75;3.60;;;;;;;17.71;100.00;102746.88;5286732;28;20036;-71
2023/05/25 09:34:11;;;;;;;11.10;3.85;;;;;;;17.66;100.00;102751.84;5278911;28;20036;-71
2023/05/25 09:36:42;;;;;;;10.80;3.97;;;;;;;17.54;100.00;102756.53;5281830;28;20028;-71
2023/05/25 09:39:14;;;;;;;11.90;4.00;;;;;;;17.53;100.00;102760.22;5290969;28;20016;-71
2023/05/25 09:41:45;;;;;;;12.93;4.00;;;;;;;17.52;100.00;102755.81;5288457;28;20075;-71
2023/05/25 09:44:16;;;;;;;9.52;3.53;;;;;;;17.63;100.00;102750.28;5285238;28;20020;-71
2023/05/25 09:46:48;;;;;;;11.40;3.70;;;;;;;17.53;100.00;102750.28;5281339;28;20024;-71
2023/05/25 09:49:20;;;;;;;11.00;3.75;;;;;;;17.64;100.00;102759.25;5284063;28;20405;-71
2023/05/25 09:51:51;;;;;;;10.80;3.60;;;;;;;17.66;100.00;102749.16;5278201;28;20079;-71
2023/05/25 09:54:24;;;;;;;10.32;3.90;;;;;;;17.77;100.00;102757.06;5278833;28;20043;-70
2023/05/25 09:56:55;;;;;;;10.98;3.75;;;;;;;17.77;100.00;102755.22;5278909;28;20397;-70
2023/05/25 09:59:27;;;;;;;11.60;3.78;;;;;;;17.74;100.00;102762.75;5284586;28;20045;-71
2023/05/25 10:01:58;;;;;;;11.48;3.60;;;;;;;17.84;100.00;102769.00;5285741;28;20062;-71
2023/05/25 10:04:29;;;;;;;11.15;3.67;;;;;;;17.74;100.00;102762.75;5288152;28;20094;-71
2023/05/25 10:07:03;;;;;;;11.82;3.92;;;;;;;17.80;100.00;102762.19;5278859;28;20073;-71
2023/05/25 10:09:42;;;;;;;7.47;3.22;;;;;;;17.73;100.00;102763.78;5277935;28;20081;-71
2023/05/25 10:12:17;;;;;;;5.93;3.22;;;;;;;17.74;100.00;102760.94;5279045;28;20490;-71
2023/05/25 10:14:50;;;;;;;11.82;3.60;;;;;;;17.63;100.00;102765.63;5278602;28;20508;-71
2023/05/25 10:17:23;;;;;;;12.75;3.65;;;;;;;17.61;100.00;102764.91;5284416;28;20504;-71
2023/05/25 10:19:58;;;;;;;8.63;3.42;;;;;;;17.72;100.00;102765.63;5278149;28;20032;-71
2023/05/25 10:22:42;;;;;;;11.80;3.90;;;;;;;17.98;100.00;102772.28;5277848;28;20016;-71
2023/05/25 10:25:25;;;;;;;8.43;3.25;;;;;;;17.95;100.00;102768.91;5279727;28;20107;-71
2023/05/25 10:27:58;;;;;;;10.48;3.75;;;;;;;17.98;100.00;102767.75;5277741;28;20512;-71
2023/05/25 10:30:31;;;;;;;9.82;4.03;;;;;;;17.98;100.00;102769.59;5277321;28;20025;-71
2023/05/25 10:33:03;;;;;;;13.25;4.00;;;;;;;17.97;100.00;102760.66;5278626;28;20492;-71
2023/05/25 10:35:38;;;;;;;10.38;3.83;;;;;;;18.14;100.00;102762.63;5279485;28;20112;-71
2023/05/25 10:38:11;;;;;;;10.90;3.83;;;;;;;18.04;100.00;102764.47;5279322;28;20504;-71
2023/05/25 10:40:47;;;;;;;12.25;4.20;;;;;;;17.97;100.00;102771.47;5284656;28;20020;-71
2023/05/25 10:43:19;;;;;;;11.65;3.75;;;;;;;18.01;100.00;102769.31;5281657;28;20016;-71
2023/05/25 10:45:51;;;;;;;14.60;4.07;;;;;;;17.96;100.00;102769.75;5279557;28;20023;-71
2023/05/25 10:48:23;;;;;;;8.77;3.63;;;;;;;18.04;100.00;102769.00;5283388;28;20405;-70
2023/05/25 10:50:55;;;;;;;9.20;4.40;;;;;;;18.04;100.00;102769.00;5277916;28;20021;-71
2023/05/25 10:53:26;;;;;;;7.95;4.05;;;;;;;18.05;100.00;102774.25;5277666;28;20020;-70
2023/05/25 10:56:04;;;;;;;11.60;3.50;;;;;;;18.32;100.00;102776.19;5280584;28;20020;-70
2023/05/25 10:58:40;;;;;;;9.50;3.47;;;;;;;18.50;100.00;102765.47;5277559;28;20031;-71
2023/05/25 11:01:14;;;;;;;13.60;3.65;;;;;;;18.76;100.00;102772.03;5278356;28;20028;-70
2023/05/25 11:03:45;;;;;;;11.65;3.85;;;;;;;18.86;100.00;102776.44;5277468;28;20111;-70
2023/05/25 11:06:20;;;;;;;12.23;3.70;;;;;;;18.95;100.00;102766.59;5278137;28;20095;-71
2023/05/25 11:08:57;;;;;;;10.55;3.35;;;;;;;18.86;100.00;102768.34;5277609;28;20340;-71
2023/05/25 11:11:41;;;;;;;7.15;3.28;;;;;;;18.89;100.00;102765.31;5275437;28;20020;-70
2023/05/25 11:14:29;;;;;;;9.10;3.28;;;;;;;18.79;100.00;102769.03;5283576;28;20432;-71
2023/05/25 11:17:13;;;;;;;9.35;3.13;;;;;;;18.73;100.00;102767.78;5281913;28;20385;-70
2023/05/25 11:19:47;;;;;;;7.50;3.05;;;;;;;19.30;100.00;102766.78;5277560;28;20024;-71
2023/05/25 11:22:20;;;;;;;6.47;2.90;;;;;;;19.99;100.00;102766.06;5277737;28;20359;-71
2023/05/25 11:24:52;;;;;;;9.82;3.65;;;;;;;20.67;100.00;102753.59;5281704;28;20017;-71
2023/05/25 11:27:26;;;;;;;7.28;2.80;;;;;;;20.92;100.00;102749.13;5278556;28;20035;-72
2023/05/25 11:29:58;;;;;;;9.85;3.47;;;;;;;20.82;100.00;102753.81;5277629;28;20476;-71
2023/05/25 11:32:29;;;;;;;9.35;3.25;;;;;;;20.53;100.00;102767.72;5278776;28;20105;-71
2023/05/25 11:35:01;;;;;;;13.73;3.53;;;;;;;20.36;100.00;102751.38;5280604;28;20390;-70
2023/05/25 11:37:32;;;;;;;8.45;3.70;;;;;;;20.32;100.00;102752.72;5281251;28;20110;-70